Time;durP1;ratioP1;P1;durP2;ratioP2;P2;SDS_P1;SDS_P2;PMS_P1;PMS_P2;Temp;Humidity;BMP_temperature;BMP_pressure;BME280_temperature;BME280_humidity;BME280_pressure;Samples;Min_cycle;Max_cycle;Signal;HPM_P1;HPM_P2
2023/05/15 00:01:26;;;;;;;43.17;35.33;;;11.60;99.90;;;;;;6185923;23;20016;-49
2023/05/15 00:03:51;;;;;;;42.50;35.20;;;11.50;99.90;;;;;;6214535;23;20020;-49
2023/05/15 00:06:17;;;;;;;41.83;35.25;;;11.50;99.90;;;;;;6215713;23;20008;-50
2023/05/15 00:08:43;;;;;;;41.90;34.75;;;11.40;99.90;;;;;;6216080;23;20096;-49
2023/05/15 00:11:09;;;;;;;40.83;34.42;;;11.40;99.90;;;;;;6215689;23;20048;-49
2023/05/15 00:13:37;;;;;;;39.55;33.13;;;11.50;99.90;;;;;;6215960;23;20532;-49
2023/05/15 00:16:06;;;;;;;46.25;35.95;;;11.40;99.90;;;;;;6215617;23;20017;-51
2023/05/15 00:18:32;;;;;;;41.63;35.40;;;11.40;99.90;;;;;;6214110;23;20529;-49
2023/05/15 00:20:58;;;;;;;46.22;37.60;;;11.40;99.90;;;;;;6215170;23;20009;-49
2023/05/15 00:23:23;;;;;;;47.92;38.30;;;11.40;99.90;;;;;;6215464;23;20017;-49
2023/05/15 00:25:49;;;;;;;42.00;35.22;;;11.30;99.90;;;;;;6215813;23;20017;-49
2023/05/15 00:28:15;;;;;;;49.55;38.65;;;11.40;99.90;;;;;;6215689;23;20091;-49
2023/05/15 00:30:40;;;;;;;49.38;37.60;;;11.30;99.90;;;;;;6215625;23;20023;-53
2023/05/15 00:33:06;;;;;;;48.38;36.90;;;11.30;99.90;;;;;;6215677;23;20104;-49
2023/05/15 00:35:32;;;;;;;54.58;40.45;;;11.40;99.90;;;;;;6215354;23;20020;-49
2023/05/15 00:37:57;;;;;;;51.38;39.70;;;11.40;99.90;;;;;;6215547;23;20012;-49
2023/05/15 00:40:25;;;;;;;54.30;40.80;;;11.30;99.90;;;;;;6215807;23;20012;-50
2023/05/15 00:42:51;;;;;;;57.78;42.25;;;11.40;99.90;;;;;;6215660;23;20063;-49
2023/05/15 00:45:18;;;;;;;55.22;41.67;;;11.40;99.90;;;;;;6215422;23;20039;-52
2023/05/15 00:47:45;;;;;;;57.30;42.78;;;11.30;99.90;;;;;;6215899;23;20092;-50
2023/05/15 00:50:11;;;;;;;59.78;42.50;;;11.30;99.90;;;;;;6215878;23;20019;-53
2023/05/15 00:52:37;;;;;;;56.60;42.70;;;11.30;99.90;;;;;;6215689;23;20017;-52
2023/05/15 00:55:03;;;;;;;58.28;43.72;;;11.30;99.90;;;;;;6215422;23;20009;-50
2023/05/15 00:57:31;;;;;;;63.53;44.45;;;11.30;99.90;;;;;;6215156;23;20013;-52
2023/05/15 00:59:57;;;;;;;60.45;44.13;;;11.40;99.90;;;;;;6215542;23;20051;-50
2023/05/15 01:02:23;;;;;;;66.18;45.30;;;11.40;99.90;;;;;;6212617;23;20083;-50
2023/05/15 01:04:49;;;;;;;62.47;45.30;;;11.40;99.90;;;;;;6211524;23;20020;-49
2023/05/15 01:07:15;;;;;;;65.57;44.40;;;11.30;99.90;;;;;;6212654;23;20017;-50
2023/05/15 01:09:44;;;;;;;65.93;45.25;;;11.30;99.90;;;;;;6215073;23;20185;-49
2023/05/15 01:12:13;;;;;;;68.50;48.38;;;11.20;99.90;;;;;;6215451;23;20024;-49
2023/05/15 01:14:39;;;;;;;67.38;46.08;;;11.10;99.90;;;;;;6215420;23;20122;-49
2023/05/15 01:17:04;;;;;;;71.07;48.85;;;11.20;99.90;;;;;;6215442;23;20017;-54
2023/05/15 01:19:30;;;;;;;72.38;47.63;;;11.20;99.90;;;;;;6212648;23;20080;-52
2023/05/15 01:22:14;;;;;;;74.53;49.35;;;11.20;99.90;;;;;;6213939;23;20024;-51
2023/05/15 01:24:58;;;;;;;69.47;46.47;;;11.20;99.90;;;;;;6212615;23;20027;-51
2023/05/15 01:27:35;;;;;;;70.28;45.65;;;11.20;99.90;;;;;;6214821;23;20047;-49
2023/05/15 01:30:16;;;;;;;75.15;46.58;;;11.20;99.90;;;;;;6216123;23;20021;-51
2023/05/15 01:33:09;;;;;;;101.07;46.58;;;11.20;99.90;;;;;;6217507;23;20015;-50
2023/05/15 01:35:38;;;;;;;70.95;47.17;;;11.20;99.90;;;;;;6217240;23;20020;-50
2023/05/15 01:38:33;;;;;;;93.25;46.97;;;11.20;99.90;;;;;;6217080;23;20013;-49
2023/05/15 01:41:07;;;;;;;70.57;46.70;;;11.10;99.90;;;;;;6215996;23;20095;-50
2023/05/15 01:43:36;;;;;;;67.63;46.45;;;11.10;99.90;;;;;;6214638;23;20309;-49
2023/05/15 01:46:03;;;;;;;75.25;45.92;;;11.10;99.90;;;;;;6214777;23;20048;-49
2023/05/15 01:48:32;;;;;;;78.93;47.50;;;11.10;99.90;;;;;;6217441;23;20021;-51
2023/05/15 01:51:02;;;;;;;63.80;42.47;;;11.10;99.90;;;;;;6217016;23;20016;-50
2023/05/15 01:53:31;;;;;;;62.15;42.80;;;11.10;99.90;;;;;;6217258;23;20012;-50
2023/05/15 01:55:58;;;;;;;75.72;42.10;;;11.10;99.90;;;;;;6217022;23;20088;-50
2023/05/15 01:58:25;;;;;;;64.30;42.72;;;11.10;99.90;;;;;;6217050;23;20352;-50
2023/05/15 02:00:51;;;;;;;64.10;43.90;;;11.00;99.90;;;;;;6216685;23;20016;-51
2023/05/15 02:03:18;;;;;;;66.63;43.45;;;11.00;99.90;;;;;;6216886;23;20328;-49
2023/05/15 02:05:45;;;;;;;72.68;38.13;;;11.10;99.90;;;;;;6217129;23;20021;-51
2023/05/15 02:08:11;;;;;;;51.80;37.60;;;11.00;99.90;;;;;;6217054;23;20373;-51
2023/05/15 02:10:38;;;;;;;56.20;37.22;;;11.00;99.90;;;;;;6214430;23;20052;-53
2023/05/15 02:13:06;;;;;;;65.47;37.38;;;11.00;99.90;;;;;;6183945;23;20013;-52
2023/05/15 02:15:33;;;;;;;50.92;36.30;;;10.90;99.90;;;;;;6213595;23;20017;-50
2023/05/15 02:17:58;;;;;;;53.25;36.28;;;10.90;99.90;;;;;;6216632;23;20009;-49
2023/05/15 02:20:24;;;;;;;65.03;36.70;;;10.90;99.90;;;;;;6216878;23;20082;-49
2023/05/15 02:22:50;;;;;;;52.80;36.45;;;10.90;99.90;;;;;;6216927;23;20032;-52
2023/05/15 02:25:15;;;;;;;61.50;37.33;;;10.90;99.90;;;;;;6216933;23;20314;-49
2023/05/15 02:27:56;;;;;;;52.85;36.70;;;10.90;99.90;;;;;;6214979;23;20472;-49
2023/05/15 02:30:25;;;;;;;58.95;36.28;;;10.90;99.90;;;;;;6214841;23;20023;-49
2023/05/15 02:32:50;;;;;;;62.75;35.90;;;10.80;99.90;;;;;;6214895;23;20380;-49
2023/05/15 02:35:30;;;;;;;87.57;36.97;;;10.80;99.90;;;;;;6216606;23;20016;-52
2023/05/15 02:37:58;;;;;;;81.13;35.35;;;10.80;99.90;;;;;;6216939;23;20052;-50
2023/05/15 02:40:25;;;;;;;;;;;10.70;99.90;;;;;;6216762;23;20449;-50
2023/05/15 02:42:53;;;;;;;49.08;35.35;;;10.60;99.90;;;;;;6216282;23;19916;-52
2023/05/15 02:45:19;;;;;;;64.25;37.60;;;10.70;99.90;;;;;;6216409;23;20070;-50
2023/05/15 02:47:45;;;;;;;58.97;36.88;;;10.70;99.90;;;;;;6215193;23;20040;-51
2023/05/15 02:50:11;;;;;;;48.17;37.70;;;10.60;99.90;;;;;;6212390;23;20070;-52
2023/05/15 02:52:36;;;;;;;75.25;37.13;;;10.80;99.90;;;;;;6214154;23;20013;-50
2023/05/15 02:55:02;;;;;;;52.15;35.03;;;10.70;99.90;;;;;;6216658;23;20377;-54
2023/05/15 02:57:28;;;;;;;53.05;35.45;;;10.80;99.90;;;;;;6217018;23;20016;-55
2023/05/15 02:59:56;;;;;;;70.70;33.70;;;10.70;99.90;;;;;;6216928;23;20039;-51
2023/05/15 03:02:21;;;;;;;120.70;36.47;;;10.60;99.90;;;;;;6216409;23;20027;-53
2023/05/15 03:04:47;;;;;;;77.35;33.78;;;10.50;99.90;;;;;;6216357;23;20008;-55
2023/05/15 03:07:13;;;;;;;95.95;34.95;;;10.30;99.90;;;;;;6216436;23;20017;-53
2023/05/15 03:09:39;;;;;;;56.75;35.38;;;10.30;99.90;;;;;;6215714;23;20048;-50
2023/05/15 03:12:06;;;;;;;67.07;35.08;;;10.30;99.90;;;;;;6216555;23;20087;-50
2023/05/15 03:14:31;;;;;;;81.25;35.88;;;10.40;99.90;;;;;;6215968;23;20083;-50
2023/05/15 03:16:57;;;;;;;103.40;34.95;;;10.30;99.90;;;;;;6216054;23;20066;-50
2023/05/15 03:19:22;;;;;;;52.15;36.20;;;10.40;99.90;;;;;;6212459;23;20092;-50
2023/05/15 03:21:48;;;;;;;62.13;36.05;;;10.40;99.90;;;;;;6212291;23;20017;-50
2023/05/15 03:24:14;;;;;;;52.80;34.03;;;10.30;99.90;;;;;;6215494;23;20413;-49
2023/05/15 03:26:41;;;;;;;46.78;32.55;;;10.40;99.90;;;;;;6216108;23;20070;-50
2023/05/15 03:29:06;;;;;;;114.50;33.53;;;10.40;99.90;;;;;;6216344;23;20092;-50
2023/05/15 03:31:32;;;;;;;108.50;33.60;;;10.40;99.90;;;;;;6216303;23;20047;-49
2023/05/15 03:33:58;;;;;;;67.28;33.00;;;10.40;99.90;;;;;;6215965;23;20017;-50
2023/05/15 03:36:23;;;;;;;59.00;34.45;;;10.30;99.90;;;;;;6213841;23;20448;-51
2023/05/15 03:38:49;;;;;;;102.10;31.73;;;10.30;99.90;;;;;;6214613;23;20467;-50
2023/05/15 03:41:14;;;;;;;64.13;32.40;;;10.30;99.90;;;;;;6213398;23;20384;-52
2023/05/15 03:43:40;;;;;;;100.32;34.88;;;10.30;99.90;;;;;;6215046;23;20472;-50
2023/05/15 03:46:06;;;;;;;49.30;30.85;;;10.30;99.90;;;;;;6216140;23;20108;-49
2023/05/15 03:48:31;;;;;;;128.73;32.22;;;10.30;99.90;;;;;;6216204;23;20472;-49
2023/05/15 03:50:57;;;;;;;90.53;32.92;;;10.30;99.90;;;;;;6216060;23;20016;-51
2023/05/15 03:53:22;;;;;;;89.85;31.23;;;10.20;99.90;;;;;;6215818;23;20016;-49
2023/05/15 03:55:48;;;;;;;139.13;34.47;;;10.30;99.90;;;;;;6216109;23;20009;-49
2023/05/15 03:58:14;;;;;;;87.25;33.67;;;10.30;99.90;;;;;;6215793;23;20013;-49
2023/05/15 04:00:39;;;;;;;115.47;32.47;;;10.20;99.90;;;;;;6215788;23;20021;-49
2023/05/15 04:03:05;;;;;;;135.88;33.17;;;10.20;99.90;;;;;;6215985;23;20027;-53
2023/05/15 04:05:30;;;;;;;108.00;31.77;;;10.00;99.90;;;;;;6214364;23;20032;-49
2023/05/15 04:07:56;;;;;;;133.98;32.60;;;10.00;99.90;;;;;;6213117;23;20027;-51
2023/05/15 04:10:21;;;;;;;80.03;32.97;;;9.90;99.90;;;;;;6213434;23;20013;-49
2023/05/15 04:12:47;;;;;;;58.08;31.27;;;10.10;99.90;;;;;;6213642;23;20016;-53
2023/05/15 04:15:17;;;;;;;157.88;32.10;;;10.10;99.90;;;;;;6212591;23;20048;-51
2023/05/15 04:17:44;;;;;;;60.28;31.30;;;10.10;99.90;;;;;;6213674;23;20084;-51
2023/05/15 04:20:11;;;;;;;89.13;31.00;;;10.00;99.90;;;;;;6212255;23;20021;-50
2023/05/15 04:22:36;;;;;;;95.27;32.50;;;10.00;99.90;;;;;;6210633;23;20016;-49
2023/05/15 04:25:03;;;;;;;96.45;31.27;;;10.10;99.90;;;;;;6211993;23;20013;-49
2023/05/15 04:27:29;;;;;;;74.60;31.80;;;10.00;99.90;;;;;;6211469;23;20449;-50
2023/05/15 04:29:54;;;;;;;99.07;28.48;;;10.00;99.90;;;;;;6213134;23;20028;-53
2023/05/15 04:32:20;;;;;;;79.90;30.42;;;10.00;99.90;;;;;;6212831;23;20405;-50
2023/05/15 04:34:46;;;;;;;73.10;30.98;;;10.00;99.90;;;;;;6212716;23;20103;-49
2023/05/15 04:37:12;;;;;;;92.95;31.17;;;10.00;99.90;;;;;;6213266;23;20044;-52
2023/05/15 04:39:37;;;;;;;62.53;32.72;;;10.00;99.90;;;;;;6213463;23;20048;-50
2023/05/15 04:42:03;;;;;;;56.35;34.05;;;10.10;99.90;;;;;;6212860;23;20318;-49
2023/05/15 04:44:29;;;;;;;56.78;31.60;;;10.00;99.90;;;;;;6212755;23;20083;-51
2023/05/15 04:46:54;;;;;;;66.55;35.22;;;10.00;99.90;;;;;;6213289;23;20043;-51
2023/05/15 04:49:20;;;;;;;60.67;34.13;;;10.00;99.90;;;;;;6213233;23;20013;-50
2023/05/15 04:51:46;;;;;;;60.33;34.80;;;9.90;99.90;;;;;;6212854;23;20057;-49
2023/05/15 04:54:11;;;;;;;51.03;34.95;;;9.90;99.90;;;;;;6213461;23;20365;-50
2023/05/15 04:56:37;;;;;;;46.15;33.88;;;10.00;99.90;;;;;;6210124;23;20091;-50
2023/05/15 04:59:02;;;;;;;61.97;37.65;;;10.00;99.90;;;;;;6210832;23;20027;-53
2023/05/15 05:01:28;;;;;;;57.63;34.92;;;10.00;99.90;;;;;;6212115;23;20410;-49
2023/05/15 05:03:54;;;;;;;55.30;36.95;;;10.00;99.90;;;;;;6213649;23;20017;-49
2023/05/15 05:06:19;;;;;;;53.40;34.47;;;10.10;99.90;;;;;;6213421;23;20012;-49
2023/05/15 05:08:45;;;;;;;47.60;34.75;;;10.10;99.90;;;;;;6215256;23;20104;-52
2023/05/15 05:11:10;;;;;;;50.00;33.42;;;10.10;99.90;;;;;;6215567;23;20023;-50
2023/05/15 05:13:36;;;;;;;40.47;33.15;;;10.10;99.90;;;;;;6214845;23;20013;-52
2023/05/15 05:16:02;;;;;;;42.55;33.50;;;10.20;99.90;;;;;;6215499;23;20392;-49
2023/05/15 05:18:29;;;;;;;45.70;31.50;;;10.20;99.90;;;;;;6215363;23;20013;-50
2023/05/15 05:21:02;;;;;;;40.97;30.48;;;10.20;99.90;;;;;;6215323;23;20094;-49
2023/05/15 05:23:30;;;;;;;42.90;30.70;;;10.20;99.90;;;;;;6215140;23;20013;-51
2023/05/15 05:25:56;;;;;;;45.22;31.75;;;10.30;99.90;;;;;;6213799;23;20071;-49
2023/05/15 05:28:22;;;;;;;39.75;30.90;;;10.20;99.90;;;;;;6213314;23;20020;-49
2023/05/15 05:30:48;;;;;;;43.53;30.65;;;10.30;99.90;;;;;;6213955;23;20027;-49
2023/05/15 05:33:14;;;;;;;42.72;29.98;;;10.30;99.90;;;;;;6210974;23;20072;-50
2023/05/15 05:35:40;;;;;;;41.83;30.00;;;10.20;99.90;;;;;;6214144;23;20066;-49
2023/05/15 05:38:05;;;;;;;42.33;30.52;;;10.20;99.90;;;;;;6215383;23;20559;-49
2023/05/15 05:40:31;;;;;;;41.97;33.10;;;10.30;99.90;;;;;;6214719;23;20112;-50
2023/05/15 05:43:03;;;;;;;46.65;32.35;;;10.30;99.90;;;;;;6215065;23;20016;-49
2023/05/15 05:45:28;;;;;;;41.00;30.95;;;10.30;99.90;;;;;;6214846;23;20013;-50
2023/05/15 05:47:55;;;;;;;41.83;31.35;;;10.50;99.90;;;;;;6214686;23;20133;-50
2023/05/15 05:50:21;;;;;;;42.67;32.75;;;10.40;99.90;;;;;;6213987;23;20386;-50
2023/05/15 05:52:46;;;;;;;45.20;32.20;;;10.50;99.90;;;;;;6213805;23;20032;-49
2023/05/15 05:55:12;;;;;;;43.33;29.30;;;10.40;99.90;;;;;;6215337;23;20441;-49
2023/05/15 05:57:38;;;;;;;39.10;30.70;;;10.10;99.90;;;;;;6214948;23;20020;-49
2023/05/15 06:00:07;;;;;;;45.17;31.13;;;10.20;99.90;;;;;;6214987;23;20009;-50
2023/05/15 06:02:33;;;;;;;40.95;31.13;;;10.30;99.90;;;;;;6215007;23;20027;-49
2023/05/15 06:04:59;;;;;;;42.83;31.77;;;10.30;99.90;;;;;;6215310;23;20095;-49
2023/05/15 06:07:25;;;;;;;46.20;33.28;;;10.30;99.90;;;;;;6214954;23;20016;-49
2023/05/15 06:09:51;;;;;;;43.25;31.65;;;10.50;99.90;;;;;;6215339;23;20088;-49
2023/05/15 06:12:17;;;;;;;44.17;32.47;;;10.60;99.90;;;;;;6215219;23;20021;-49
2023/05/15 06:14:42;;;;;;;43.03;31.67;;;10.40;99.90;;;;;;6211232;23;20455;-50
2023/05/15 06:17:08;;;;;;;42.17;31.80;;;10.50;99.90;;;;;;6215124;23;20106;-49
2023/05/15 06:19:33;;;;;;;42.08;30.80;;;10.40;99.90;;;;;;6217001;23;20021;-50
2023/05/15 06:21:59;;;;;;;37.83;29.67;;;10.50;99.90;;;;;;6217025;23;20340;-49
2023/05/15 06:24:25;;;;;;;35.05;28.10;;;10.50;99.90;;;;;;6216737;23;20012;-51
2023/05/15 06:26:51;;;;;;;35.00;27.33;;;10.50;99.90;;;;;;6189877;23;20022;-51
2023/05/15 06:29:17;;;;;;;35.85;27.20;;;10.60;99.90;;;;;;6216332;23;20013;-50
2023/05/15 06:31:42;;;;;;;34.35;27.75;;;10.50;99.90;;;;;;6213613;23;20024;-50
2023/05/15 06:34:08;;;;;;;36.50;27.52;;;10.50;99.90;;;;;;6216435;23;20012;-50
2023/05/15 06:36:34;;;;;;;31.55;26.45;;;10.60;99.90;;;;;;6216200;23;20067;-50
2023/05/15 06:38:59;;;;;;;28.45;24.75;;;10.60;99.90;;;;;;6215172;23;20012;-49
2023/05/15 06:41:25;;;;;;;29.70;23.50;;;10.60;99.90;;;;;;6216221;23;20095;-49
2023/05/15 06:43:51;;;;;;;32.00;25.80;;;10.60;99.90;;;;;;6216447;23;20016;-50
2023/05/15 06:46:17;;;;;;;32.28;24.63;;;10.50;99.90;;;;;;6216697;23;20021;-50
2023/05/15 06:48:44;;;;;;;32.75;26.20;;;10.50;99.90;;;;;;6216573;23;20047;-53
2023/05/15 06:51:09;;;;;;;31.77;26.13;;;10.70;99.90;;;;;;6216335;23;20023;-50
2023/05/15 06:53:35;;;;;;;31.50;25.65;;;11.00;99.90;;;;;;6216372;23;20017;-49
2023/05/15 06:56:01;;;;;;;31.73;26.05;;;11.30;99.90;;;;;;6216597;23;20037;-51
2023/05/15 06:58:26;;;;;;;33.38;26.60;;;11.50;99.90;;;;;;6216477;23;20027;-50
2023/05/15 07:00:52;;;;;;;31.92;26.00;;;12.00;99.90;;;;;;6215604;23;20012;-50
2023/05/15 07:03:18;;;;;;;34.40;27.55;;;;;;;;;;6214973;23;20042;-52
2023/05/15 07:05:44;;;;;;;32.10;26.17;;;12.80;99.90;;;;;;6212102;23;20020;-54
2023/05/15 07:08:09;;;;;;;31.50;25.92;;;13.40;99.90;;;;;;6214912;23;20048;-54
2023/05/15 07:10:35;;;;;;;30.88;25.30;;;13.90;99.90;;;;;;6216747;23;20311;-53
2023/05/15 07:13:01;;;;;;;31.20;25.73;;;14.40;99.90;;;;;;6215894;23;20123;-54
2023/05/15 07:15:26;;;;;;;30.63;25.77;;;15.00;99.90;;;;;;6213837;23;20031;-50
2023/05/15 07:17:52;;;;;;;25.58;22.67;;;15.30;99.90;;;;;;6216543;23;20016;-50
2023/05/15 07:20:18;;;;;;;25.48;22.88;;;15.60;99.90;;;;;;6216355;23;20449;-50
2023/05/15 07:22:43;;;;;;;26.15;22.98;;;15.40;99.90;;;;;;6216185;23;20044;-50
2023/05/15 07:25:09;;;;;;;28.70;23.48;;;15.70;99.90;;;;;;6215863;23;20136;-50
2023/05/15 07:27:35;;;;;;;26.05;23.25;;;16.20;99.90;;;;;;6216143;23;20012;-50
2023/05/15 07:30:03;;;;;;;24.80;21.88;;;16.00;99.90;;;;;;6216176;23;20008;-51
2023/05/15 07:32:29;;;;;;;25.58;22.85;;;15.80;99.90;;;;;;6215165;23;20388;-50
2023/05/15 07:34:55;;;;;;;23.90;21.35;;;16.00;99.90;;;;;;6215103;23;20013;-50
2023/05/15 07:37:22;;;;;;;22.83;20.42;;;16.10;99.90;;;;;;6215777;23;20816;-50
2023/05/15 07:39:47;;;;;;;24.55;22.05;;;16.20;99.90;;;;;;6216009;23;20016;-51
2023/05/15 07:42:13;;;;;;;22.58;20.13;;;16.00;99.90;;;;;;6216014;23;20452;-51
2023/05/15 07:44:39;;;;;;;20.92;18.52;;;15.30;99.90;;;;;;6216176;23;20031;-52
2023/05/15 07:47:04;;;;;;;23.23;20.83;;;15.00;99.90;;;;;;6216252;23;20055;-52
2023/05/15 07:49:30;;;;;;;22.35;20.13;;;15.50;99.90;;;;;;6216126;23;20135;-51
2023/05/15 07:51:56;;;;;;;23.13;20.75;;;15.30;99.90;;;;;;6214616;23;20406;-51
2023/05/15 07:54:21;;;;;;;21.55;19.35;;;15.50;99.90;;;;;;6213315;23;20058;-51
2023/05/15 07:56:47;;;;;;;21.55;19.35;;;15.70;99.90;;;;;;6213327;23;20054;-54
2023/05/15 07:59:13;;;;;;;21.88;19.67;;;15.80;99.90;;;;;;6213103;23;20101;-55
2023/05/15 08:01:39;;;;;;;21.42;19.23;;;16.00;99.90;;;;;;6211583;23;20016;-56
2023/05/15 08:04:07;;;;;;;20.58;18.35;;;16.20;99.90;;;;;;6211660;23;20105;-55
2023/05/15 08:06:35;;;;;;;20.65;18.63;;;16.40;99.90;;;;;;6211252;23;20025;-54
2023/05/15 08:09:01;;;;;;;21.02;18.83;;;16.50;99.90;;;;;;6212113;23;20067;-51
2023/05/15 08:11:27;;;;;;;19.33;17.42;;;16.50;99.90;;;;;;6210537;23;20016;-51
2023/05/15 08:13:52;;;;;;;19.85;17.55;;;16.70;99.90;;;;;;6210808;23;20017;-51
2023/05/15 08:16:18;;;;;;;20.17;17.05;;;17.00;99.90;;;;;;6211374;23;20012;-56
2023/05/15 08:18:44;;;;;;;19.85;17.80;;;17.00;99.90;;;;;;6211552;23;20318;-56
2023/05/15 08:21:10;;;;;;;18.65;16.75;;;16.90;99.90;;;;;;6211151;23;20021;-53
2023/05/15 08:23:35;;;;;;;19.50;17.55;;;17.10;99.90;;;;;;6211483;23;20013;-52
2023/05/15 08:26:01;;;;;;;18.25;16.35;;;16.90;99.90;;;;;;6210451;23;20386;-56
2023/05/15 08:28:27;;;;;;;19.35;17.35;;;16.90;99.90;;;;;;6210094;23;20084;-51
2023/05/15 08:30:52;;;;;;;18.67;16.83;;;17.30;99.90;;;;;;6208873;23;20051;-54
2023/05/15 08:33:18;;;;;;;17.92;16.23;;;17.50;99.90;;;;;;6210656;23;20013;-53
2023/05/15 08:35:43;;;;;;;18.52;16.60;;;17.50;99.90;;;;;;6209377;23;20047;-53
2023/05/15 08:38:09;;;;;;;18.38;16.67;;;17.80;99.90;;;;;;6209811;23;20008;-54
2023/05/15 08:40:35;;;;;;;17.52;15.82;;;18.00;99.90;;;;;;6211454;23;20066;-53
2023/05/15 08:43:05;;;;;;;18.00;16.05;;;17.80;99.90;;;;;;6211638;23;20012;-52
2023/05/15 08:45:31;;;;;;;17.95;16.20;;;18.00;99.90;;;;;;6213483;23;20083;-53
2023/05/15 08:47:59;;;;;;;18.13;16.23;;;18.10;99.90;;;;;;6212864;23;20507;-56
2023/05/15 08:50:25;;;;;;;18.55;15.80;;;18.20;99.90;;;;;;6212583;23;20048;-54
2023/05/15 08:52:56;;;;;;;17.77;16.08;;;18.10;99.90;;;;;;6213626;23;20013;-55
2023/05/15 08:55:22;;;;;;;16.98;15.38;;;17.60;99.90;;;;;;6213271;23;20071;-55
2023/05/15 08:57:49;;;;;;;16.85;15.15;;;17.60;99.90;;;;;;6213729;23;20008;-56
2023/05/15 09:00:16;;;;;;;16.30;14.73;;;17.70;99.90;;;;;;6212878;23;20082;-55
2023/05/15 09:02:42;;;;;;;15.90;14.50;;;17.60;99.90;;;;;;6212786;23;20027;-54
2023/05/15 09:05:08;;;;;;;15.95;14.35;;;18.10;99.90;;;;;;6213472;23;20013;-55
2023/05/15 09:07:35;;;;;;;18.80;15.40;;;18.10;99.90;;;;;;6186040;23;20444;-56
2023/05/15 09:10:02;;;;;;;16.90;15.30;;;18.40;99.90;;;;;;6213137;23;20017;-56
2023/05/15 09:12:32;;;;;;;15.75;14.35;;;18.60;99.90;;;;;;6211864;23;20017;-55
2023/05/15 09:15:16;;;;;;;15.82;14.32;;;18.60;99.90;;;;;;6212185;23;20027;-54
2023/05/15 09:17:43;;;;;;;15.27;13.77;;;18.80;99.90;;;;;;6212688;23;20096;-54
2023/05/15 09:20:30;;;;;;;15.88;14.30;;;18.50;99.90;;;;;;6212307;23;20349;-55
2023/05/15 09:22:57;;;;;;;16.02;14.43;;;18.60;99.90;;;;;;6212643;23;20068;-54
2023/05/15 09:25:43;;;;;;;16.58;14.77;;;18.60;99.90;;;;;;6213559;23;20063;-51
2023/05/15 09:28:32;;;;;;;16.00;14.07;;;18.90;99.90;;;;;;6210968;23;20357;-51
2023/05/15 09:31:01;;;;;;;15.48;13.98;;;19.10;99.90;;;;;;6212062;23;20082;-50
2023/05/15 09:33:38;;;;;;;17.02;15.38;;;19.10;99.90;;;;;;6213143;23;20021;-50
2023/05/15 09:36:05;;;;;;;;;;;19.40;99.90;;;;;;6212504;23;20055;-53
2023/05/15 09:38:40;;;;;;;18.77;15.05;;;19.40;99.90;;;;;;6213038;23;19927;-49
2023/05/15 09:41:07;;;;;;;14.55;13.18;;;19.40;99.90;;;;;;6212994;23;20048;-54
2023/05/15 09:43:37;;;;;;;14.88;13.38;;;19.20;99.90;;;;;;6212749;23;20013;-52
2023/05/15 09:46:04;;;;;;;14.40;13.10;;;18.60;99.90;;;;;;6212815;23;20071;-54
2023/05/15 09:48:30;;;;;;;14.80;13.20;;;19.10;99.90;;;;;;6208917;23;20023;-55
2023/05/15 09:50:56;;;;;;;14.45;13.15;;;19.20;99.90;;;;;;6211523;23;20012;-53
2023/05/15 09:53:22;;;;;;;15.15;13.73;;;19.30;99.90;;;;;;6190045;23;20080;-51
2023/05/15 09:55:49;;;;;;;15.00;13.50;;;19.40;99.90;;;;;;6189495;23;20375;-52
2023/05/15 09:58:17;;;;;;;14.90;13.52;;;19.00;99.90;;;;;;6217271;23;20012;-53
2023/05/15 10:00:43;;;;;;;14.57;13.18;;;19.10;99.90;;;;;;6216758;23;20079;-52
2023/05/15 10:03:10;;;;;;;11.83;10.63;;;19.20;99.90;;;;;;6217103;23;20013;-50
2023/05/15 10:05:36;;;;;;;11.32;10.20;;;19.40;99.90;;;;;;6216804;23;20232;-52
2023/05/15 10:08:02;;;;;;;12.48;11.30;;;19.70;99.90;;;;;;6216890;23;20337;-51
2023/05/15 10:10:29;;;;;;;12.05;10.80;;;19.70;99.90;;;;;;6216870;23;20048;-55
2023/05/15 10:13:00;;;;;;;12.10;10.90;;;19.30;99.90;;;;;;6189905;23;20087;-55
2023/05/15 10:15:26;;;;;;;12.55;11.23;;;19.60;99.90;;;;;;6217186;23;20080;-53
2023/05/15 10:17:52;;;;;;;11.73;10.57;;;19.80;99.90;;;;;;6215633;23;20023;-51
2023/05/15 10:20:23;;;;;;;11.63;10.63;;;20.00;99.90;;;;;;6216479;23;20013;-51
2023/05/15 10:22:50;;;;;;;11.05;9.85;;;20.20;99.90;;;;;;6216748;23;20020;-56
2023/05/15 10:25:48;;;;;;;13.15;11.80;;;20.40;99.90;;;;;;6216945;23;20027;-54
2023/05/15 10:28:16;;;;;;;12.15;11.05;;;20.40;99.90;;;;;;6216734;23;20373;-54
2023/05/15 10:30:42;;;;;;;12.55;11.35;;;20.70;99.90;;;;;;6216719;23;20067;-52
2023/05/15 10:33:07;;;;;;;11.88;10.82;;;20.80;99.90;;;;;;6217018;23;20013;-54
2023/05/15 10:35:33;;;;;;;12.48;11.07;;;21.10;99.90;;;;;;6216779;23;20495;-55
2023/05/15 10:38:03;;;;;;;11.55;10.45;;;21.30;99.90;;;;;;6216926;23;20013;-54
2023/05/15 10:40:30;;;;;;;11.52;10.43;;;21.50;99.90;;;;;;6216689;23;20013;-53
2023/05/15 10:43:00;;;;;;;12.25;10.90;;;21.40;99.90;;;;;;6187069;23;20016;-51
2023/05/15 10:45:26;;;;;;;10.48;9.50;;;21.60;99.90;;;;;;6213316;23;20021;-51
2023/05/15 10:47:53;;;;;;;9.27;8.38;;;21.70;99.90;;;;;;6212455;23;20013;-55
2023/05/15 10:50:18;;;;;;;10.27;8.50;;;21.60;99.90;;;;;;6215052;23;20063;-52
2023/05/15 10:52:44;;;;;;;9.68;8.75;;;21.30;99.90;;;;;;6216142;23;20016;-55
2023/05/15 10:55:15;;;;;;;9.60;8.60;;;21.20;99.90;;;;;;6212021;23;20013;-53
2023/05/15 10:57:44;;;;;;;11.57;10.15;;;21.10;99.90;;;;;;6212658;23;20013;-53
2023/05/15 11:00:30;;;;;;;10.60;9.70;;;20.90;99.90;;;;;;6210120;23;20020;-55
2023/05/15 11:02:57;;;;;;;12.27;9.90;;;21.00;99.90;;;;;;6210330;23;20020;-54
2023/05/15 11:05:23;;;;;;;10.50;9.50;;;21.20;99.90;;;;;;6214053;23;20013;-53
2023/05/15 11:08:14;;;;;;;11.40;10.23;;;21.30;99.90;;;;;;6214207;23;20016;-53
2023/05/15 11:10:40;;;;;;;10.98;9.88;;;21.20;99.90;;;;;;6212714;23;20032;-55
2023/05/15 11:13:05;;;;;;;13.18;10.52;;;21.20;99.90;;;;;;6211790;23;20433;-51
2023/05/15 11:15:41;;;;;;;11.45;10.45;;;21.20;99.90;;;;;;6210781;23;20403;-51
2023/05/15 11:18:07;;;;;;;13.05;10.95;;;21.20;99.90;;;;;;6211772;23;20023;-55
2023/05/15 11:20:38;;;;;;;12.13;10.65;;;21.40;99.90;;;;;;6212170;23;20079;-54
2023/05/15 11:23:04;;;;;;;11.88;10.65;;;21.40;99.90;;;;;;6211753;23;20453;-51
2023/05/15 11:25:31;;;;;;;13.48;10.65;;;21.50;99.90;;;;;;6212665;23;20088;-54
2023/05/15 11:27:57;;;;;;;12.95;11.75;;;21.70;99.90;;;;;;6213907;23;20349;-55
2023/05/15 11:30:37;;;;;;;11.98;10.20;;;22.00;99.90;;;;;;6209497;23;20016;-56
2023/05/15 11:33:10;;;;;;;12.40;11.23;;;22.20;99.90;;;;;;6211931;23;20017;-53
2023/05/15 11:35:45;;;;;;;11.60;10.50;;;22.20;99.90;;;;;;6213047;23;20109;-52
2023/05/15 11:38:37;;;;;;;11.43;10.23;;;22.20;99.90;;;;;;6211814;23;20017;-52
2023/05/15 11:41:16;;;;;;;11.50;10.25;;;22.00;99.90;;;;;;6204584;23;20063;-55
2023/05/15 11:43:41;;;;;;;12.10;11.00;;;22.00;99.90;;;;;;6212292;23;20102;-51
2023/05/15 11:46:09;;;;;;;10.82;9.82;;;22.10;99.90;;;;;;6186153;23;20016;-51
2023/05/15 11:48:48;;;;;;;11.60;9.65;;;21.80;99.90;;;;;;6213598;23;20016;-54
2023/05/15 11:51:25;;;;;;;14.88;10.57;;;21.50;99.90;;;;;;6209928;23;20330;-54
2023/05/15 11:53:52;;;;;;;12.73;9.50;;;21.30;99.90;;;;;;6211634;23;20460;-55
2023/05/15 11:56:29;;;;;;;9.93;8.82;;;21.40;99.90;;;;;;6210842;23;20044;-52
2023/05/15 11:58:56;;;;;;;10.90;9.80;;;21.30;99.90;;;;;;6211549;23;20036;-64
2023/05/15 12:01:22;;;;;;;10.75;9.85;;;21.00;99.90;;;;;;6210658;23;20013;-53
2023/05/15 12:03:48;;;;;;;11.60;10.10;;;21.20;99.90;;;;;;6210289;23;20368;-53
2023/05/15 12:06:15;;;;;;;14.60;13.15;;;21.40;99.90;;;;;;6209371;23;20044;-54
2023/05/15 12:08:41;;;;;;;19.75;13.77;;;21.30;99.90;;;;;;6210665;23;20008;-54
2023/05/15 12:11:07;;;;;;;14.20;12.80;;;21.00;99.90;;;;;;6210331;23;20071;-53
2023/05/15 12:13:33;;;;;;;15.25;13.07;;;21.20;99.90;;;;;;6209966;23;20013;-50
2023/05/15 12:16:00;;;;;;;14.00;12.43;;;21.60;99.90;;;;;;6212342;23;20087;-53
2023/05/15 12:18:26;;;;;;;14.40;13.10;;;21.50;99.90;;;;;;6214004;23;20009;-54
2023/05/15 12:20:52;;;;;;;13.25;11.88;;;21.90;99.90;;;;;;6213581;23;20012;-54
2023/05/15 12:23:20;;;;;;;13.90;12.18;;;22.10;99.90;;;;;;6213163;23;20009;-54
2023/05/15 12:25:48;;;;;;;13.88;12.57;;;22.10;99.90;;;;;;6213108;23;20020;-55
2023/05/15 12:28:14;;;;;;;12.43;11.32;;;22.20;99.90;;;;;;6213649;23;20012;-51
2023/05/15 12:30:41;;;;;;;15.32;12.18;;;22.40;99.90;;;;;;6211952;23;20013;-54